sensor_id;sensor_type;location;lat;lon;timestamp;temperature;humidity
285;DHT22;127;48.770;9.212;2023-04-03T00:00:10;3.40;99.90
285;DHT22;127;48.770;9.212;2023-04-03T00:02:41;3.30;99.90
285;DHT22;127;48.770;9.212;2023-04-03T00:05:18;3.30;99.90
285;DHT22;127;48.770;9.212;2023-04-03T00:07:47;3.30;99.90
285;DHT22;127;48.770;9.212;2023-04-03T00:10:22;3.40;99.90
285;DHT22;127;48.770;9.212;2023-04-03T00:13:01;3.40;99.90
285;DHT22;127;48.770;9.212;2023-04-03T00:15:34;3.30;99.90
285;DHT22;127;48.770;9.212;2023-04-03T00:18:08;3.30;99.90
285;DHT22;127;48.770;9.212;2023-04-03T00:20:37;3.20;99.90
285;DHT22;127;48.770;9.212;2023-04-03T00:23:07;3.30;99.90
285;DHT22;127;48.770;9.212;2023-04-03T00:25:42;3.20;99.90
285;DHT22;127;48.770;9.212;2023-04-03T00:28:11;3.10;99.90
285;DHT22;127;48.770;9.212;2023-04-03T00:30:47;3.10;99.90
285;DHT22;127;48.770;9.212;2023-04-03T00:33:22;3.20;99.90
285;DHT22;127;48.770;9.212;2023-04-03T00:35:53;3.10;99.90
285;DHT22;127;48.770;9.212;2023-04-03T00:38:22;3.10;99.90
285;DHT22;127;48.770;9.212;2023-04-03T00:40:59;3.10;99.90
285;DHT22;127;48.770;9.212;2023-04-03T00:43:39;3.10;99.90
285;DHT22;127;48.770;9.212;2023-04-03T00:46:23;3.20;99.90
285;DHT22;127;48.770;9.212;2023-04-03T00:48:55;3.20;99.90
285;DHT22;127;48.770;9.212;2023-04-03T00:51:26;3.20;99.90
285;DHT22;127;48.770;9.212;2023-04-03T00:53:59;3.20;99.90
285;DHT22;127;48.770;9.212;2023-04-03T00:56:35;3.20;99.90
285;DHT22;127;48.770;9.212;2023-04-03T00:59:08;3.10;99.90
285;DHT22;127;48.770;9.212;2023-04-03T01:01:38;3.00;99.90
285;DHT22;127;48.770;9.212;2023-04-03T01:04:32;3.00;99.90
285;DHT22;127;48.770;9.212;2023-04-03T01:07:07;3.00;99.90
285;DHT22;127;48.770;9.212;2023-04-03T01:09:37;3.10;99.90
285;DHT22;127;48.770;9.212;2023-04-03T01:12:19;3.10;99.90
285;DHT22;127;48.770;9.212;2023-04-03T01:14:52;3.20;99.90
285;DHT22;127;48.770;9.212;2023-04-03T01:17:30;3.20;99.90
285;DHT22;127;48.770;9.212;2023-04-03T01:23:11;3.10;99.90
285;DHT22;127;48.770;9.212;2023-04-03T01:25:43;3.10;99.90
285;DHT22;127;48.770;9.212;2023-04-03T01:28:19;3.20;99.90
285;DHT22;127;48.770;9.212;2023-04-03T01:30:53;3.10;99.90
285;DHT22;127;48.770;9.212;2023-04-03T01:33:27;3.10;99.90
285;DHT22;127;48.770;9.212;2023-04-03T01:36:01;3.10;99.90
285;DHT22;127;48.770;9.212;2023-04-03T01:38:33;3.10;99.90
285;DHT22;127;48.770;9.212;2023-04-03T01:41:06;3.00;99.90
285;DHT22;127;48.770;9.212;2023-04-03T01:43:37;2.90;99.90
285;DHT22;127;48.770;9.212;2023-04-03T01:46:06;3.10;99.90
285;DHT22;127;48.770;9.212;2023-04-03T01:48:38;3.10;99.90
285;DHT22;127;48.770;9.212;2023-04-03T01:51:10;3.20;99.90
285;DHT22;127;48.770;9.212;2023-04-03T01:53:38;3.10;99.90
285;DHT22;127;48.770;9.212;2023-04-03T01:56:11;3.00;99.90
285;DHT22;127;48.770;9.212;2023-04-03T01:58:40;3.00;99.90
285;DHT22;127;48.770;9.212;2023-04-03T02:01:11;2.80;99.90
285;DHT22;127;48.770;9.212;2023-04-03T02:03:43;2.80;99.90
285;DHT22;127;48.770;9.212;2023-04-03T02:06:12;3.00;99.90
285;DHT22;127;48.770;9.212;2023-04-03T02:08:42;2.90;99.90
285;DHT22;127;48.770;9.212;2023-04-03T02:11:12;3.00;99.90
285;DHT22;127;48.770;9.212;2023-04-03T02:13:41;2.90;99.90
285;DHT22;127;48.770;9.212;2023-04-03T02:16:11;2.90;99.90
285;DHT22;127;48.770;9.212;2023-04-03T02:18:43;3.00;99.90
285;DHT22;127;48.770;9.212;2023-04-03T02:21:13;3.00;99.90
285;DHT22;127;48.770;9.212;2023-04-03T02:23:42;3.10;99.90
285;DHT22;127;48.770;9.212;2023-04-03T02:26:14;3.10;99.90
285;DHT22;127;48.770;9.212;2023-04-03T02:28:43;2.90;99.90
285;DHT22;127;48.770;9.212;2023-04-03T02:31:12;3.00;99.90
285;DHT22;127;48.770;9.212;2023-04-03T02:34:07;3.10;99.90
285;DHT22;127;48.770;9.212;2023-04-03T02:36:42;3.00;99.90
285;DHT22;127;48.770;9.212;2023-04-03T02:39:12;3.10;99.90
285;DHT22;127;48.770;9.212;2023-04-03T02:41:43;3.10;99.90
285;DHT22;127;48.770;9.212;2023-04-03T02:44:13;3.10;99.90
285;DHT22;127;48.770;9.212;2023-04-03T02:46:52;3.10;99.90
285;DHT22;127;48.770;9.212;2023-04-03T02:49:24;3.10;99.90
285;DHT22;127;48.770;9.212;2023-04-03T02:51:54;3.20;99.90
285;DHT22;127;48.770;9.212;2023-04-03T02:54:33;3.20;99.90
285;DHT22;127;48.770;9.212;2023-04-03T02:57:03;3.30;99.90
285;DHT22;127;48.770;9.212;2023-04-03T02:59:34;3.30;99.90
285;DHT22;127;48.770;9.212;2023-04-03T03:02:27;3.20;99.90
285;DHT22;127;48.770;9.212;2023-04-03T03:04:59;3.30;99.90
285;DHT22;127;48.770;9.212;2023-04-03T03:07:32;3.30;99.90
285;DHT22;127;48.770;9.212;2023-04-03T03:10:13;3.30;99.90
285;DHT22;127;48.770;9.212;2023-04-03T03:12:42;3.30;99.90
285;DHT22;127;48.770;9.212;2023-04-03T03:15:14;3.30;99.90
285;DHT22;127;48.770;9.212;2023-04-03T03:17:45;3.20;99.90
285;DHT22;127;48.770;9.212;2023-04-03T03:20:21;3.10;99.90
285;DHT22;127;48.770;9.212;2023-04-03T03:22:52;3.20;99.90
285;DHT22;127;48.770;9.212;2023-04-03T03:25:26;3.20;99.90
285;DHT22;127;48.770;9.212;2023-04-03T03:28:10;3.20;99.90
285;DHT22;127;48.770;9.212;2023-04-03T03:30:40;3.20;99.90
285;DHT22;127;48.770;9.212;2023-04-03T03:33:29;3.20;99.90
285;DHT22;127;48.770;9.212;2023-04-03T03:36:01;3.20;99.90
285;DHT22;127;48.770;9.212;2023-04-03T03:38:42;3.20;99.90
285;DHT22;127;48.770;9.212;2023-04-03T03:41:23;3.30;99.90
285;DHT22;127;48.770;9.212;2023-04-03T03:43:58;3.10;99.90
285;DHT22;127;48.770;9.212;2023-04-03T03:46:31;3.20;99.90
285;DHT22;127;48.770;9.212;2023-04-03T03:49:00;3.20;99.90
285;DHT22;127;48.770;9.212;2023-04-03T03:51:32;3.10;99.90
285;DHT22;127;48.770;9.212;2023-04-03T03:54:01;3.20;99.90
285;DHT22;127;48.770;9.212;2023-04-03T03:56:36;3.10;99.90
285;DHT22;127;48.770;9.212;2023-04-03T03:59:06;3.00;99.90
285;DHT22;127;48.770;9.212;2023-04-03T04:01:37;3.10;99.90
285;DHT22;127;48.770;9.212;2023-04-03T04:04:09;3.20;99.90
285;DHT22;127;48.770;9.212;2023-04-03T04:06:52;3.10;99.90
285;DHT22;127;48.770;9.212;2023-04-03T04:09:25;3.10;99.90
285;DHT22;127;48.770;9.212;2023-04-03T04:11:57;3.10;99.90
285;DHT22;127;48.770;9.212;2023-04-03T04:14:26;3.00;99.90
285;DHT22;127;48.770;9.212;2023-04-03T04:16:56;3.00;99.90
285;DHT22;127;48.770;9.212;2023-04-03T04:19:30;3.20;99.90
285;DHT22;127;48.770;9.212;2023-04-03T04:22:11;3.20;99.90
285;DHT22;127;48.770;9.212;2023-04-03T04:24:40;3.30;99.90
285;DHT22;127;48.770;9.212;2023-04-03T04:27:10;3.30;99.90
285;DHT22;127;48.770;9.212;2023-04-03T04:29:40;3.20;99.90
285;DHT22;127;48.770;9.212;2023-04-03T04:32:23;3.30;99.90
285;DHT22;127;48.770;9.212;2023-04-03T04:35:07;3.30;99.90
285;DHT22;127;48.770;9.212;2023-04-03T04:37:39;3.10;99.90
285;DHT22;127;48.770;9.212;2023-04-03T04:40:26;3.10;99.90
285;DHT22;127;48.770;9.212;2023-04-03T04:42:58;3.00;99.90
285;DHT22;127;48.770;9.212;2023-04-03T04:45:27;3.00;99.90
285;DHT22;127;48.770;9.212;2023-04-03T04:48:17;3.10;99.90
285;DHT22;127;48.770;9.212;2023-04-03T04:50:56;3.10;99.90
285;DHT22;127;48.770;9.212;2023-04-03T04:53:42;3.00;99.90
285;DHT22;127;48.770;9.212;2023-04-03T04:56:17;3.10;99.90
285;DHT22;127;48.770;9.212;2023-04-03T04:58:50;3.10;99.90
285;DHT22;127;48.770;9.212;2023-04-03T05:01:30;3.10;99.90
285;DHT22;127;48.770;9.212;2023-04-03T05:04:02;3.10;99.90
285;DHT22;127;48.770;9.212;2023-04-03T05:06:41;3.10;99.90
285;DHT22;127;48.770;9.212;2023-04-03T05:09:16;3.00;99.90
285;DHT22;127;48.770;9.212;2023-04-03T05:11:49;3.00;99.90
285;DHT22;127;48.770;9.212;2023-04-03T05:14:39;3.10;99.90
285;DHT22;127;48.770;9.212;2023-04-03T05:20:30;3.10;99.90
285;DHT22;127;48.770;9.212;2023-04-03T05:23:01;3.10;99.90
285;DHT22;127;48.770;9.212;2023-04-03T05:25:50;3.20;99.90
285;DHT22;127;48.770;9.212;2023-04-03T05:28:20;3.20;99.90
285;DHT22;127;48.770;9.212;2023-04-03T05:30:53;3.30;99.90
285;DHT22;127;48.770;9.212;2023-04-03T05:33:27;3.40;99.90
285;DHT22;127;48.770;9.212;2023-04-03T05:36:01;3.30;99.90
285;DHT22;127;48.770;9.212;2023-04-03T05:38:30;3.30;99.90
285;DHT22;127;48.770;9.212;2023-04-03T05:41:01;3.30;99.90
285;DHT22;127;48.770;9.212;2023-04-03T05:43:34;3.30;99.90
285;DHT22;127;48.770;9.212;2023-04-03T05:46:15;3.40;99.90
285;DHT22;127;48.770;9.212;2023-04-03T05:48:45;3.30;99.90
285;DHT22;127;48.770;9.212;2023-04-03T05:51:19;3.30;99.90
285;DHT22;127;48.770;9.212;2023-04-03T05:53:56;3.30;99.90
285;DHT22;127;48.770;9.212;2023-04-03T05:56:30;3.10;99.90
285;DHT22;127;48.770;9.212;2023-04-03T05:58:59;3.00;99.90
285;DHT22;127;48.770;9.212;2023-04-03T06:01:32;3.10;99.90
285;DHT22;127;48.770;9.212;2023-04-03T06:04:09;3.00;99.90
285;DHT22;127;48.770;9.212;2023-04-03T06:06:51;3.00;99.90
285;DHT22;127;48.770;9.212;2023-04-03T06:09:28;3.10;99.90
285;DHT22;127;48.770;9.212;2023-04-03T06:12:04;3.20;99.90
285;DHT22;127;48.770;9.212;2023-04-03T06:14:33;3.10;99.90
285;DHT22;127;48.770;9.212;2023-04-03T06:17:02;3.30;99.90
285;DHT22;127;48.770;9.212;2023-04-03T06:19:33;3.50;99.90
285;DHT22;127;48.770;9.212;2023-04-03T06:22:03;3.50;99.90
285;DHT22;127;48.770;9.212;2023-04-03T06:24:39;3.60;99.90
285;DHT22;127;48.770;9.212;2023-04-03T06:30:53;3.60;99.90
285;DHT22;127;48.770;9.212;2023-04-03T06:37:22;3.50;99.90
285;DHT22;127;48.770;9.212;2023-04-03T06:47:14;3.90;99.90
285;DHT22;127;48.770;9.212;2023-04-03T07:49:35;5.50;99.90
285;DHT22;127;48.770;9.212;2023-04-03T07:52:18;5.60;99.90
285;DHT22;127;48.770;9.212;2023-04-03T07:55:20;5.80;99.90
285;DHT22;127;48.770;9.212;2023-04-03T07:57:56;5.90;99.90
285;DHT22;127;48.770;9.212;2023-04-03T08:01:40;6.00;99.90
285;DHT22;127;48.770;9.212;2023-04-03T08:03:37;5.90;99.90
285;DHT22;127;48.770;9.212;2023-04-03T08:06:14;6.10;99.90
285;DHT22;127;48.770;9.212;2023-04-03T08:09:13;6.30;99.90
285;DHT22;127;48.770;9.212;2023-04-03T08:11:43;6.60;99.90
285;DHT22;127;48.770;9.212;2023-04-03T08:14:23;6.60;99.90
285;DHT22;127;48.770;9.212;2023-04-03T08:17:09;6.60;99.90
285;DHT22;127;48.770;9.212;2023-04-03T08:19:39;6.90;99.90
285;DHT22;127;48.770;9.212;2023-04-03T08:22:37;7.00;99.90
285;DHT22;127;48.770;9.212;2023-04-03T08:25:30;7.00;99.90
285;DHT22;127;48.770;9.212;2023-04-03T08:32:09;7.20;99.90
285;DHT22;127;48.770;9.212;2023-04-03T08:34:47;7.20;99.90
285;DHT22;127;48.770;9.212;2023-04-03T08:37:39;6.80;99.90
285;DHT22;127;48.770;9.212;2023-04-03T08:40:16;6.60;99.90
285;DHT22;127;48.770;9.212;2023-04-03T08:43:13;6.50;99.90
285;DHT22;127;48.770;9.212;2023-04-03T08:46:07;6.60;99.90
285;DHT22;127;48.770;9.212;2023-04-03T08:51:51;6.90;99.90
285;DHT22;127;48.770;9.212;2023-04-03T08:54:51;6.70;99.90
285;DHT22;127;48.770;9.212;2023-04-03T08:57:35;7.20;99.90
285;DHT22;127;48.770;9.212;2023-04-03T09:00:25;7.50;99.90
285;DHT22;127;48.770;9.212;2023-04-03T09:06:26;7.90;99.90
285;DHT22;127;48.770;9.212;2023-04-03T09:09:12;8.10;99.90
285;DHT22;127;48.770;9.212;2023-04-03T09:12:04;7.70;99.90
285;DHT22;127;48.770;9.212;2023-04-03T09:14:40;7.50;99.90
285;DHT22;127;48.770;9.212;2023-04-03T09:17:17;7.70;99.90
285;DHT22;127;48.770;9.212;2023-04-03T09:20:24;7.60;99.90
285;DHT22;127;48.770;9.212;2023-04-03T09:23:18;8.10;99.90
285;DHT22;127;48.770;9.212;2023-04-03T09:25:50;7.70;99.90
285;DHT22;127;48.770;9.212;2023-04-03T09:28:30;7.60;99.90
285;DHT22;127;48.770;9.212;2023-04-03T09:31:01;7.20;99.90
285;DHT22;127;48.770;9.212;2023-04-03T09:33:34;6.80;99.90
285;DHT22;127;48.770;9.212;2023-04-03T09:36:22;6.90;99.90
285;DHT22;127;48.770;9.212;2023-04-03T09:39:12;7.10;99.90
285;DHT22;127;48.770;9.212;2023-04-03T09:41:58;7.30;99.90
285;DHT22;127;48.770;9.212;2023-04-03T09:44:31;7.40;99.90
285;DHT22;127;48.770;9.212;2023-04-03T09:47:25;7.40;99.90
285;DHT22;127;48.770;9.212;2023-04-03T09:50:20;7.40;99.90
285;DHT22;127;48.770;9.212;2023-04-03T09:55:08;7.40;99.90
285;DHT22;127;48.770;9.212;2023-04-03T09:59:38;7.20;99.90
285;DHT22;127;48.770;9.212;2023-04-03T10:02:35;7.00;99.90
285;DHT22;127;48.770;9.212;2023-04-03T10:08:31;7.00;99.90
285;DHT22;127;48.770;9.212;2023-04-03T10:12:13;7.10;99.90
285;DHT22;127;48.770;9.212;2023-04-03T10:14:25;6.50;99.90
285;DHT22;127;48.770;9.212;2023-04-03T10:17:29;6.30;99.90
285;DHT22;127;48.770;9.212;2023-04-03T10:20:43;6.30;99.90
285;DHT22;127;48.770;9.212;2023-04-03T10:27:08;6.60;99.90
285;DHT22;127;48.770;9.212;2023-04-03T10:30:21;6.80;99.90
285;DHT22;127;48.770;9.212;2023-04-03T10:33:23;7.10;99.90
285;DHT22;127;48.770;9.212;2023-04-03T10:36:29;7.10;99.90
285;DHT22;127;48.770;9.212;2023-04-03T10:39:27;7.20;99.90
285;DHT22;127;48.770;9.212;2023-04-03T10:42:46;7.40;99.90
285;DHT22;127;48.770;9.212;2023-04-03T10:45:50;7.30;99.90
285;DHT22;127;48.770;9.212;2023-04-03T10:48:44;6.70;99.90
285;DHT22;127;48.770;9.212;2023-04-03T10:51:31;6.80;99.90
285;DHT22;127;48.770;9.212;2023-04-03T10:54:11;7.00;99.90
285;DHT22;127;48.770;9.212;2023-04-03T10:56:51;6.70;99.90
285;DHT22;127;48.770;9.212;2023-04-03T10:59:33;7.00;99.90
285;DHT22;127;48.770;9.212;2023-04-03T11:02:16;6.80;99.90
285;DHT22;127;48.770;9.212;2023-04-03T11:04:55;7.00;99.90
285;DHT22;127;48.770;9.212;2023-04-03T11:07:48;7.20;99.90
285;DHT22;127;48.770;9.212;2023-04-03T11:10:24;6.70;99.90
285;DHT22;127;48.770;9.212;2023-04-03T11:13:10;6.60;99.90
285;DHT22;127;48.770;9.212;2023-04-03T11:15:40;6.70;99.90
285;DHT22;127;48.770;9.212;2023-04-03T11:18:20;7.10;99.90
285;DHT22;127;48.770;9.212;2023-04-03T11:21:00;7.20;99.90
285;DHT22;127;48.770;9.212;2023-04-03T11:24:03;7.30;99.90
285;DHT22;127;48.770;9.212;2023-04-03T11:26:42;7.50;99.90
285;DHT22;127;48.770;9.212;2023-04-03T11:29:18;7.60;99.90
285;DHT22;127;48.770;9.212;2023-04-03T11:32:02;7.20;99.90
285;DHT22;127;48.770;9.212;2023-04-03T11:34:44;7.00;99.90
285;DHT22;127;48.770;9.212;2023-04-03T11:37:21;7.10;99.90
285;DHT22;127;48.770;9.212;2023-04-03T11:40:24;7.30;99.90
285;DHT22;127;48.770;9.212;2023-04-03T11:43:05;7.10;99.90
285;DHT22;127;48.770;9.212;2023-04-03T11:45:57;7.30;99.90
285;DHT22;127;48.770;9.212;2023-04-03T11:48:45;7.50;99.90
285;DHT22;127;48.770;9.212;2023-04-03T11:51:41;7.30;99.90
285;DHT22;127;48.770;9.212;2023-04-03T11:54:47;7.40;99.90
285;DHT22;127;48.770;9.212;2023-04-03T11:57:50;7.40;99.90
285;DHT22;127;48.770;9.212;2023-04-03T12:00:54;7.30;99.90
285;DHT22;127;48.770;9.212;2023-04-03T12:10:14;7.40;99.90
285;DHT22;127;48.770;9.212;2023-04-03T12:13:16;7.00;99.90
285;DHT22;127;48.770;9.212;2023-04-03T12:15:55;7.00;99.90
285;DHT22;127;48.770;9.212;2023-04-03T12:21:23;6.20;99.90
285;DHT22;127;48.770;9.212;2023-04-03T12:24:04;6.50;99.90
285;DHT22;127;48.770;9.212;2023-04-03T12:26:50;6.70;99.90
285;DHT22;127;48.770;9.212;2023-04-03T12:29:47;6.90;99.90
285;DHT22;127;48.770;9.212;2023-04-03T12:35:31;7.20;99.90
285;DHT22;127;48.770;9.212;2023-04-03T12:38:37;7.20;99.90
285;DHT22;127;48.770;9.212;2023-04-03T12:41:25;6.80;99.90
285;DHT22;127;48.770;9.212;2023-04-03T12:47:22;6.90;99.90
285;DHT22;127;48.770;9.212;2023-04-03T12:49:53;7.20;99.90
285;DHT22;127;48.770;9.212;2023-04-03T12:52:41;7.60;99.90
285;DHT22;127;48.770;9.212;2023-04-03T12:55:15;7.80;99.90
285;DHT22;127;48.770;9.212;2023-04-03T13:01:02;7.70;99.90
285;DHT22;127;48.770;9.212;2023-04-03T13:03:57;8.20;99.90
285;DHT22;127;48.770;9.212;2023-04-03T13:06:50;8.70;99.90
285;DHT22;127;48.770;9.212;2023-04-03T13:16:10;11.00;99.90
285;DHT22;127;48.770;9.212;2023-04-03T13:31:51;9.60;99.90
285;DHT22;127;48.770;9.212;2023-04-03T13:37:40;9.80;99.90
285;DHT22;127;48.770;9.212;2023-04-03T14:02:46;10.90;99.90
285;DHT22;127;48.770;9.212;2023-04-03T14:08:34;10.50;99.90
285;DHT22;127;48.770;9.212;2023-04-03T14:11:18;9.70;99.90
285;DHT22;127;48.770;9.212;2023-04-03T14:14:27;9.50;99.90
285;DHT22;127;48.770;9.212;2023-04-03T14:17:17;9.30;99.90
285;DHT22;127;48.770;9.212;2023-04-03T14:19:58;9.00;99.90
285;DHT22;127;48.770;9.212;2023-04-03T14:22:54;9.00;99.90
285;DHT22;127;48.770;9.212;2023-04-03T14:25:40;8.60;99.90
285;DHT22;127;48.770;9.212;2023-04-03T14:28:18;8.20;99.90
285;DHT22;127;48.770;9.212;2023-04-03T14:30:51;7.60;99.90
285;DHT22;127;48.770;9.212;2023-04-03T14:36:46;8.70;99.90
285;DHT22;127;48.770;9.212;2023-04-03T14:39:26;11.40;99.90
285;DHT22;127;48.770;9.212;2023-04-03T14:42:25;13.50;99.90
285;DHT22;127;48.770;9.212;2023-04-03T14:52:09;13.20;99.90
285;DHT22;127;48.770;9.212;2023-04-03T14:55:30;12.00;99.90
285;DHT22;127;48.770;9.212;2023-04-03T14:58:22;11.00;99.90
285;DHT22;127;48.770;9.212;2023-04-03T15:01:08;10.40;99.90
285;DHT22;127;48.770;9.212;2023-04-03T15:03:56;9.80;99.90
285;DHT22;127;48.770;9.212;2023-04-03T15:06:33;8.70;99.90
285;DHT22;127;48.770;9.212;2023-04-03T15:09:24;8.90;99.90
285;DHT22;127;48.770;9.212;2023-04-03T15:12:04;8.50;99.90
285;DHT22;127;48.770;9.212;2023-04-03T15:40:31;8.50;99.90
285;DHT22;127;48.770;9.212;2023-04-03T15:43:26;7.70;99.90
285;DHT22;127;48.770;9.212;2023-04-03T15:46:07;7.30;99.90
285;DHT22;127;48.770;9.212;2023-04-03T15:48:42;8.20;99.90
285;DHT22;127;48.770;9.212;2023-04-03T15:51:28;9.40;99.90
285;DHT22;127;48.770;9.212;2023-04-03T15:54:05;10.40;99.90
285;DHT22;127;48.770;9.212;2023-04-03T15:56:42;11.20;99.90
285;DHT22;127;48.770;9.212;2023-04-03T15:59:15;10.70;99.90
285;DHT22;127;48.770;9.212;2023-04-03T16:01:44;11.30;99.90
285;DHT22;127;48.770;9.212;2023-04-03T16:04:28;12.00;99.90
285;DHT22;127;48.770;9.212;2023-04-03T16:07:05;11.30;99.90
285;DHT22;127;48.770;9.212;2023-04-03T16:09:45;12.50;99.90
285;DHT22;127;48.770;9.212;2023-04-03T16:12:17;11.30;99.90
285;DHT22;127;48.770;9.212;2023-04-03T16:14:52;10.70;99.90
285;DHT22;127;48.770;9.212;2023-04-03T16:17:21;10.20;99.90
285;DHT22;127;48.770;9.212;2023-04-03T16:20:04;9.80;99.90
285;DHT22;127;48.770;9.212;2023-04-03T16:22:37;9.00;99.90
285;DHT22;127;48.770;9.212;2023-04-03T16:28:28;8.20;99.90
285;DHT22;127;48.770;9.212;2023-04-03T16:31:12;7.80;99.90
285;DHT22;127;48.770;9.212;2023-04-03T16:33:43;7.50;99.90
285;DHT22;127;48.770;9.212;2023-04-03T16:36:18;7.50;99.90
285;DHT22;127;48.770;9.212;2023-04-03T16:38:49;8.00;99.90
285;DHT22;127;48.770;9.212;2023-04-03T16:41:32;8.60;99.90
285;DHT22;127;48.770;9.212;2023-04-03T16:44:13;9.20;99.90
285;DHT22;127;48.770;9.212;2023-04-03T16:46:55;10.10;99.90
285;DHT22;127;48.770;9.212;2023-04-03T16:49:36;10.60;99.90
285;DHT22;127;48.770;9.212;2023-04-03T16:52:05;10.20;99.90
285;DHT22;127;48.770;9.212;2023-04-03T16:54:52;10.00;99.90
285;DHT22;127;48.770;9.212;2023-04-03T16:57:40;10.50;99.90
285;DHT22;127;48.770;9.212;2023-04-03T17:00:15;10.50;99.90
285;DHT22;127;48.770;9.212;2023-04-03T17:03:10;10.00;99.90
285;DHT22;127;48.770;9.212;2023-04-03T17:05:55;10.20;99.90
285;DHT22;127;48.770;9.212;2023-04-03T17:08:30;10.10;99.90
285;DHT22;127;48.770;9.212;2023-04-03T17:11:06;10.00;99.90
285;DHT22;127;48.770;9.212;2023-04-03T17:13:57;9.20;99.90
285;DHT22;127;48.770;9.212;2023-04-03T17:16:42;8.80;99.90
285;DHT22;127;48.770;9.212;2023-04-03T17:19:23;8.80;99.90
285;DHT22;127;48.770;9.212;2023-04-03T17:22:53;8.60;99.90
285;DHT22;127;48.770;9.212;2023-04-03T17:25:40;8.00;99.90
285;DHT22;127;48.770;9.212;2023-04-03T17:28:25;7.70;99.90
285;DHT22;127;48.770;9.212;2023-04-03T17:30:58;7.90;99.90
285;DHT22;127;48.770;9.212;2023-04-03T17:33:36;7.90;99.90
285;DHT22;127;48.770;9.212;2023-04-03T17:36:08;7.50;99.90
285;DHT22;127;48.770;9.212;2023-04-03T17:38:40;6.90;99.90
285;DHT22;127;48.770;9.212;2023-04-03T17:41:16;6.70;99.90
285;DHT22;127;48.770;9.212;2023-04-03T17:43:48;6.40;99.90
285;DHT22;127;48.770;9.212;2023-04-03T17:46:24;6.20;99.90
285;DHT22;127;48.770;9.212;2023-04-03T17:49:37;6.10;99.90
285;DHT22;127;48.770;9.212;2023-04-03T17:52:00;6.10;99.90
285;DHT22;127;48.770;9.212;2023-04-03T17:54:32;6.10;99.90
285;DHT22;127;48.770;9.212;2023-04-03T17:57:02;6.00;99.90
285;DHT22;127;48.770;9.212;2023-04-03T17:59:33;5.80;99.90
285;DHT22;127;48.770;9.212;2023-04-03T18:02:07;5.80;99.90
285;DHT22;127;48.770;9.212;2023-04-03T18:04:42;5.60;99.90
285;DHT22;127;48.770;9.212;2023-04-03T18:07:11;5.50;99.90
285;DHT22;127;48.770;9.212;2023-04-03T18:10:00;5.50;99.90
285;DHT22;127;48.770;9.212;2023-04-03T18:12:45;5.40;99.90
285;DHT22;127;48.770;9.212;2023-04-03T18:15:19;5.30;99.90
285;DHT22;127;48.770;9.212;2023-04-03T18:17:58;5.30;99.90
285;DHT22;127;48.770;9.212;2023-04-03T18:20:45;5.10;99.90
285;DHT22;127;48.770;9.212;2023-04-03T18:23:20;5.00;99.90
285;DHT22;127;48.770;9.212;2023-04-03T18:25:54;4.90;99.90
285;DHT22;127;48.770;9.212;2023-04-03T18:28:38;4.80;99.90
285;DHT22;127;48.770;9.212;2023-04-03T18:31:16;4.80;99.90
285;DHT22;127;48.770;9.212;2023-04-03T18:33:59;4.90;99.90
285;DHT22;127;48.770;9.212;2023-04-03T18:36:47;4.80;99.90
285;DHT22;127;48.770;9.212;2023-04-03T18:39:53;4.90;99.90
285;DHT22;127;48.770;9.212;2023-04-03T18:42:49;4.90;99.90
285;DHT22;127;48.770;9.212;2023-04-03T18:45:34;5.00;99.90
285;DHT22;127;48.770;9.212;2023-04-03T18:55:11;4.60;99.90
285;DHT22;127;48.770;9.212;2023-04-03T18:57:53;4.40;99.90
285;DHT22;127;48.770;9.212;2023-04-03T19:00:41;4.30;99.90
285;DHT22;127;48.770;9.212;2023-04-03T19:03:15;4.10;99.90
285;DHT22;127;48.770;9.212;2023-04-03T19:05:50;3.90;99.90
285;DHT22;127;48.770;9.212;2023-04-03T19:08:43;3.80;99.90
285;DHT22;127;48.770;9.212;2023-04-03T19:11:18;3.60;99.90
285;DHT22;127;48.770;9.212;2023-04-03T19:13:53;3.50;99.90
285;DHT22;127;48.770;9.212;2023-04-03T19:16:25;3.50;99.90
285;DHT22;127;48.770;9.212;2023-04-03T19:19:03;3.50;99.90
285;DHT22;127;48.770;9.212;2023-04-03T19:22:03;3.40;99.90
285;DHT22;127;48.770;9.212;2023-04-03T19:36:50;3.50;99.90
285;DHT22;127;48.770;9.212;2023-04-03T19:39:20;3.60;99.90
285;DHT22;127;48.770;9.212;2023-04-03T19:42:02;3.60;99.90
285;DHT22;127;48.770;9.212;2023-04-03T19:55:13;3.60;99.90
285;DHT22;127;48.770;9.212;2023-04-03T19:58:14;3.60;99.90
285;DHT22;127;48.770;9.212;2023-04-03T20:01:17;3.50;99.90
285;DHT22;127;48.770;9.212;2023-04-03T20:04:14;3.40;99.90
285;DHT22;127;48.770;9.212;2023-04-03T20:10:32;3.20;99.90
285;DHT22;127;48.770;9.212;2023-04-03T20:13:35;3.10;99.90
285;DHT22;127;48.770;9.212;2023-04-03T20:20:05;2.90;99.90
285;DHT22;127;48.770;9.212;2023-04-03T20:23:35;2.70;99.90
285;DHT22;127;48.770;9.212;2023-04-03T20:27:32;2.60;99.90
285;DHT22;127;48.770;9.212;2023-04-03T20:29:42;2.50;99.90
285;DHT22;127;48.770;9.212;2023-04-03T20:35:56;2.30;99.90
285;DHT22;127;48.770;9.212;2023-04-03T20:39:44;2.20;99.90
285;DHT22;127;48.770;9.212;2023-04-03T20:42:40;2.10;99.90
285;DHT22;127;48.770;9.212;2023-04-03T20:45:25;2.10;99.90
285;DHT22;127;48.770;9.212;2023-04-03T20:48:24;2.10;99.90
285;DHT22;127;48.770;9.212;2023-04-03T20:51:23;2.10;99.90
285;DHT22;127;48.770;9.212;2023-04-03T20:54:06;2.10;99.90
285;DHT22;127;48.770;9.212;2023-04-03T20:56:52;2.10;99.90
285;DHT22;127;48.770;9.212;2023-04-03T21:02:55;2.00;99.90
285;DHT22;127;48.770;9.212;2023-04-03T21:05:38;1.90;99.90
285;DHT22;127;48.770;9.212;2023-04-03T21:20:25;1.60;99.90
285;DHT22;127;48.770;9.212;2023-04-03T21:23:13;1.50;99.90
285;DHT22;127;48.770;9.212;2023-04-03T21:30:23;1.40;99.90
285;DHT22;127;48.770;9.212;2023-04-03T21:32:22;1.40;99.90
285;DHT22;127;48.770;9.212;2023-04-03T21:35:05;1.30;99.90
285;DHT22;127;48.770;9.212;2023-04-03T21:38:15;1.20;99.90
285;DHT22;127;48.770;9.212;2023-04-03T21:41:20;1.30;99.90
285;DHT22;127;48.770;9.212;2023-04-03T21:44:22;1.30;99.90
285;DHT22;127;48.770;9.212;2023-04-03T21:50:25;1.20;99.90
285;DHT22;127;48.770;9.212;2023-04-03T21:52:56;1.20;99.90
285;DHT22;127;48.770;9.212;2023-04-03T21:55:32;1.10;99.90
285;DHT22;127;48.770;9.212;2023-04-03T21:58:03;1.10;99.90
285;DHT22;127;48.770;9.212;2023-04-03T22:00:33;1.10;99.90
285;DHT22;127;48.770;9.212;2023-04-03T22:03:06;0.90;99.90
285;DHT22;127;48.770;9.212;2023-04-03T22:05:46;0.90;99.90
285;DHT22;127;48.770;9.212;2023-04-03T22:08:19;1.00;99.90
285;DHT22;127;48.770;9.212;2023-04-03T22:13:53;0.80;99.90
285;DHT22;127;48.770;9.212;2023-04-03T22:16:24;0.80;99.90
285;DHT22;127;48.770;9.212;2023-04-03T22:18:52;0.80;99.90
285;DHT22;127;48.770;9.212;2023-04-03T22:21:23;0.80;99.90
285;DHT22;127;48.770;9.212;2023-04-03T22:23:52;0.70;99.90
285;DHT22;127;48.770;9.212;2023-04-03T22:26:24;0.70;99.90
285;DHT22;127;48.770;9.212;2023-04-03T22:28:53;0.70;99.90
285;DHT22;127;48.770;9.212;2023-04-03T22:31:26;0.70;99.90
285;DHT22;127;48.770;9.212;2023-04-03T22:33:58;0.60;99.90
285;DHT22;127;48.770;9.212;2023-04-03T22:36:34;0.50;99.90
285;DHT22;127;48.770;9.212;2023-04-03T22:39:12;0.50;99.90
285;DHT22;127;48.770;9.212;2023-04-03T22:41:45;0.40;99.90
285;DHT22;127;48.770;9.212;2023-04-03T22:44:17;0.30;99.90
285;DHT22;127;48.770;9.212;2023-04-03T22:46:52;0.20;99.90
285;DHT22;127;48.770;9.212;2023-04-03T22:49:27;0.20;99.90
285;DHT22;127;48.770;9.212;2023-04-03T22:51:56;0.10;99.90
285;DHT22;127;48.770;9.212;2023-04-03T22:54:25;0.20;99.90
285;DHT22;127;48.770;9.212;2023-04-03T22:56:56;0.20;99.90